sensor_id;sensor_type;location;lat;lon;timestamp;P1;durP1;ratioP1;P2;durP2;ratioP2
35745;SDS011;21870;42.812;74.628;2023-12-14T00:01:27;15.30;;;11.43;;
35745;SDS011;21870;42.812;74.628;2023-12-14T00:03:53;13.63;;;10.65;;
35745;SDS011;21870;42.812;74.628;2023-12-14T00:06:19;16.13;;;11.15;;
35745;SDS011;21870;42.812;74.628;2023-12-14T00:08:45;16.23;;;12.23;;
35745;SDS011;21870;42.812;74.628;2023-12-14T00:11:11;20.63;;;14.30;;
35745;SDS011;21870;42.812;74.628;2023-12-14T00:13:38;20.17;;;14.68;;
35745;SDS011;21870;42.812;74.628;2023-12-14T00:16:04;31.42;;;17.02;;
35745;SDS011;21870;42.812;74.628;2023-12-14T00:18:30;22.80;;;16.10;;
35745;SDS011;21870;42.812;74.628;2023-12-14T00:20:57;23.40;;;14.95;;
35745;SDS011;21870;42.812;74.628;2023-12-14T00:23:23;22.27;;;15.45;;
35745;SDS011;21870;42.812;74.628;2023-12-14T00:25:49;25.35;;;17.45;;
35745;SDS011;21870;42.812;74.628;2023-12-14T00:28:15;19.63;;;15.55;;
35745;SDS011;21870;42.812;74.628;2023-12-14T00:30:41;19.30;;;14.40;;
35745;SDS011;21870;42.812;74.628;2023-12-14T00:33:07;19.30;;;13.48;;
35745;SDS011;21870;42.812;74.628;2023-12-14T00:35:33;13.65;;;10.35;;
35745;SDS011;21870;42.812;74.628;2023-12-14T00:37:59;13.80;;;10.23;;
35745;SDS011;21870;42.812;74.628;2023-12-14T00:40:25;10.30;;;8.27;;
35745;SDS011;21870;42.812;74.628;2023-12-14T00:42:52;12.20;;;8.98;;
35745;SDS011;21870;42.812;74.628;2023-12-14T00:45:18;14.10;;;10.38;;
35745;SDS011;21870;42.812;74.628;2023-12-14T00:47:44;15.70;;;11.32;;
35745;SDS011;21870;42.812;74.628;2023-12-14T00:50:10;13.23;;;9.68;;
35745;SDS011;21870;42.812;74.628;2023-12-14T00:52:36;11.63;;;9.98;;
35745;SDS011;21870;42.812;74.628;2023-12-14T00:55:02;16.85;;;10.18;;
35745;SDS011;21870;42.812;74.628;2023-12-14T00:57:28;27.55;;;16.15;;
35745;SDS011;21870;42.812;74.628;2023-12-14T00:59:54;44.03;;;26.10;;
35745;SDS011;21870;42.812;74.628;2023-12-14T01:02:20;29.13;;;19.55;;
35745;SDS011;21870;42.812;74.628;2023-12-14T01:04:46;20.83;;;13.35;;
35745;SDS011;21870;42.812;74.628;2023-12-14T01:07:13;24.73;;;12.70;;
35745;SDS011;21870;42.812;74.628;2023-12-14T01:09:38;19.65;;;11.75;;
35745;SDS011;21870;42.812;74.628;2023-12-14T01:12:04;14.80;;;11.38;;
35745;SDS011;21870;42.812;74.628;2023-12-14T01:14:31;20.20;;;12.73;;
35745;SDS011;21870;42.812;74.628;2023-12-14T01:16:57;18.00;;;12.07;;
35745;SDS011;21870;42.812;74.628;2023-12-14T01:19:23;17.45;;;12.23;;
35745;SDS011;21870;42.812;74.628;2023-12-14T01:21:50;18.80;;;11.45;;
35745;SDS011;21870;42.812;74.628;2023-12-14T01:24:17;15.95;;;11.88;;
35745;SDS011;21870;42.812;74.628;2023-12-14T01:26:43;13.65;;;11.32;;
35745;SDS011;21870;42.812;74.628;2023-12-14T01:29:09;20.92;;;14.50;;
35745;SDS011;21870;42.812;74.628;2023-12-14T01:31:36;22.40;;;16.20;;
35745;SDS011;21870;42.812;74.628;2023-12-14T01:34:02;22.63;;;16.88;;
35745;SDS011;21870;42.812;74.628;2023-12-14T01:36:28;23.13;;;18.27;;
35745;SDS011;21870;42.812;74.628;2023-12-14T01:38:54;24.17;;;17.35;;
35745;SDS011;21870;42.812;74.628;2023-12-14T01:41:20;22.88;;;14.02;;
35745;SDS011;21870;42.812;74.628;2023-12-14T01:43:46;24.80;;;16.23;;
35745;SDS011;21870;42.812;74.628;2023-12-14T01:46:12;44.85;;;28.02;;
35745;SDS011;21870;42.812;74.628;2023-12-14T01:48:40;32.40;;;21.95;;
35745;SDS011;21870;42.812;74.628;2023-12-14T01:51:06;38.65;;;24.42;;
35745;SDS011;21870;42.812;74.628;2023-12-14T01:53:33;37.28;;;23.40;;
35745;SDS011;21870;42.812;74.628;2023-12-14T01:55:59;34.80;;;23.13;;
35745;SDS011;21870;42.812;74.628;2023-12-14T01:58:25;39.55;;;26.08;;
35745;SDS011;21870;42.812;74.628;2023-12-14T02:03:21;47.85;;;26.95;;
35745;SDS011;21870;42.812;74.628;2023-12-14T02:05:47;47.10;;;29.88;;
35745;SDS011;21870;42.812;74.628;2023-12-14T02:08:13;53.08;;;30.88;;
35745;SDS011;21870;42.812;74.628;2023-12-14T02:10:39;53.20;;;31.23;;
35745;SDS011;21870;42.812;74.628;2023-12-14T02:13:05;50.90;;;31.20;;
35745;SDS011;21870;42.812;74.628;2023-12-14T02:15:32;45.38;;;27.00;;
35745;SDS011;21870;42.812;74.628;2023-12-14T02:17:58;49.00;;;29.90;;
35745;SDS011;21870;42.812;74.628;2023-12-14T02:20:24;52.95;;;31.15;;
35745;SDS011;21870;42.812;74.628;2023-12-14T02:25:17;26.13;;;17.65;;
35745;SDS011;21870;42.812;74.628;2023-12-14T02:27:44;41.03;;;24.10;;
35745;SDS011;21870;42.812;74.628;2023-12-14T02:30:11;47.08;;;29.02;;
35745;SDS011;21870;42.812;74.628;2023-12-14T02:32:38;44.60;;;26.58;;
35745;SDS011;21870;42.812;74.628;2023-12-14T02:35:05;39.90;;;25.48;;
35745;SDS011;21870;42.812;74.628;2023-12-14T02:37:32;32.22;;;20.48;;
35745;SDS011;21870;42.812;74.628;2023-12-14T02:39:58;37.15;;;23.48;;
35745;SDS011;21870;42.812;74.628;2023-12-14T02:42:28;35.00;;;23.95;;
35745;SDS011;21870;42.812;74.628;2023-12-14T02:44:55;39.10;;;23.52;;
35745;SDS011;21870;42.812;74.628;2023-12-14T02:47:22;43.20;;;24.83;;
35745;SDS011;21870;42.812;74.628;2023-12-14T02:49:48;136.82;;;79.90;;
35745;SDS011;21870;42.812;74.628;2023-12-14T02:52:14;462.63;;;266.73;;
35745;SDS011;21870;42.812;74.628;2023-12-14T02:54:40;81.05;;;51.05;;
35745;SDS011;21870;42.812;74.628;2023-12-14T02:57:06;53.88;;;34.78;;
35745;SDS011;21870;42.812;74.628;2023-12-14T02:59:32;126.70;;;60.25;;
35745;SDS011;21870;42.812;74.628;2023-12-14T03:02:01;149.18;;;91.72;;
35745;SDS011;21870;42.812;74.628;2023-12-14T03:04:27;116.60;;;72.35;;
35745;SDS011;21870;42.812;74.628;2023-12-14T03:06:53;103.93;;;67.47;;
35745;SDS011;21870;42.812;74.628;2023-12-14T03:09:21;78.70;;;48.25;;
35745;SDS011;21870;42.812;74.628;2023-12-14T03:11:47;60.67;;;38.30;;
35745;SDS011;21870;42.812;74.628;2023-12-14T03:14:13;62.03;;;40.03;;
35745;SDS011;21870;42.812;74.628;2023-12-14T03:16:40;64.82;;;41.72;;
35745;SDS011;21870;42.812;74.628;2023-12-14T03:19:06;66.45;;;42.60;;
35745;SDS011;21870;42.812;74.628;2023-12-14T03:21:32;79.35;;;49.17;;
35745;SDS011;21870;42.812;74.628;2023-12-14T03:23:58;70.82;;;46.38;;
35745;SDS011;21870;42.812;74.628;2023-12-14T03:26:24;94.25;;;56.38;;
35745;SDS011;21870;42.812;74.628;2023-12-14T03:28:50;111.47;;;67.80;;
35745;SDS011;21870;42.812;74.628;2023-12-14T03:31:16;107.35;;;64.22;;
35745;SDS011;21870;42.812;74.628;2023-12-14T03:33:43;101.65;;;61.17;;
35745;SDS011;21870;42.812;74.628;2023-12-14T03:36:09;95.35;;;57.78;;
35745;SDS011;21870;42.812;74.628;2023-12-14T03:38:35;98.63;;;57.22;;
35745;SDS011;21870;42.812;74.628;2023-12-14T03:41:01;85.47;;;51.85;;
35745;SDS011;21870;42.812;74.628;2023-12-14T03:43:27;76.13;;;48.05;;
35745;SDS011;21870;42.812;74.628;2023-12-14T03:45:53;67.95;;;44.13;;
35745;SDS011;21870;42.812;74.628;2023-12-14T03:48:19;56.03;;;37.55;;
35745;SDS011;21870;42.812;74.628;2023-12-14T03:50:45;80.07;;;48.60;;
35745;SDS011;21870;42.812;74.628;2023-12-14T03:53:11;102.78;;;61.92;;
35745;SDS011;21870;42.812;74.628;2023-12-14T03:55:37;126.68;;;76.15;;
35745;SDS011;21870;42.812;74.628;2023-12-14T03:58:03;69.32;;;43.72;;
35745;SDS011;21870;42.812;74.628;2023-12-14T04:00:29;54.83;;;33.90;;
35745;SDS011;21870;42.812;74.628;2023-12-14T04:02:55;50.95;;;32.42;;
35745;SDS011;21870;42.812;74.628;2023-12-14T04:05:21;66.68;;;43.60;;
35745;SDS011;21870;42.812;74.628;2023-12-14T04:07:47;47.47;;;33.53;;
35745;SDS011;21870;42.812;74.628;2023-12-14T04:10:13;41.13;;;28.15;;
35745;SDS011;21870;42.812;74.628;2023-12-14T04:12:39;34.00;;;24.42;;
35745;SDS011;21870;42.812;74.628;2023-12-14T04:15:06;31.08;;;21.52;;
35745;SDS011;21870;42.812;74.628;2023-12-14T04:17:34;29.23;;;19.98;;
35745;SDS011;21870;42.812;74.628;2023-12-14T04:20:00;34.88;;;17.02;;
35745;SDS011;21870;42.812;74.628;2023-12-14T04:22:28;19.08;;;15.10;;
35745;SDS011;21870;42.812;74.628;2023-12-14T04:24:54;20.10;;;12.80;;
35745;SDS011;21870;42.812;74.628;2023-12-14T04:27:20;23.15;;;14.55;;
35745;SDS011;21870;42.812;74.628;2023-12-14T04:29:49;36.50;;;22.55;;
35745;SDS011;21870;42.812;74.628;2023-12-14T04:32:15;37.97;;;24.38;;
35745;SDS011;21870;42.812;74.628;2023-12-14T04:34:41;27.20;;;20.35;;
35745;SDS011;21870;42.812;74.628;2023-12-14T04:37:07;28.27;;;20.88;;
35745;SDS011;21870;42.812;74.628;2023-12-14T04:39:33;27.92;;;19.75;;
35745;SDS011;21870;42.812;74.628;2023-12-14T04:41:59;25.77;;;16.88;;
35745;SDS011;21870;42.812;74.628;2023-12-14T04:44:25;21.77;;;14.43;;
35745;SDS011;21870;42.812;74.628;2023-12-14T04:46:51;14.80;;;12.02;;
35745;SDS011;21870;42.812;74.628;2023-12-14T04:49:18;12.77;;;8.57;;
35745;SDS011;21870;42.812;74.628;2023-12-14T04:51:45;11.07;;;7.25;;
35745;SDS011;21870;42.812;74.628;2023-12-14T04:54:11;10.27;;;6.43;;
35745;SDS011;21870;42.812;74.628;2023-12-14T04:56:37;10.45;;;6.43;;
35745;SDS011;21870;42.812;74.628;2023-12-14T04:59:03;16.75;;;11.73;;
35745;SDS011;21870;42.812;74.628;2023-12-14T05:01:29;26.40;;;13.05;;
35745;SDS011;21870;42.812;74.628;2023-12-14T05:03:55;19.73;;;11.32;;
35745;SDS011;21870;42.812;74.628;2023-12-14T05:06:21;12.43;;;7.97;;
35745;SDS011;21870;42.812;74.628;2023-12-14T05:08:47;9.75;;;7.60;;
35745;SDS011;21870;42.812;74.628;2023-12-14T05:11:13;9.60;;;7.10;;
35745;SDS011;21870;42.812;74.628;2023-12-14T05:13:39;10.18;;;6.45;;
35745;SDS011;21870;42.812;74.628;2023-12-14T05:16:13;8.63;;;7.70;;
35745;SDS011;21870;42.812;74.628;2023-12-14T05:18:40;8.18;;;6.60;;
35745;SDS011;21870;42.812;74.628;2023-12-14T05:21:06;8.57;;;6.38;;
35745;SDS011;21870;42.812;74.628;2023-12-14T05:23:32;8.13;;;5.38;;
35745;SDS011;21870;42.812;74.628;2023-12-14T05:25:58;9.93;;;6.78;;
35745;SDS011;21870;42.812;74.628;2023-12-14T05:28:24;10.48;;;5.78;;
35745;SDS011;21870;42.812;74.628;2023-12-14T05:30:50;5.95;;;5.30;;
35745;SDS011;21870;42.812;74.628;2023-12-14T05:33:16;23.00;;;12.80;;
35745;SDS011;21870;42.812;74.628;2023-12-14T05:35:42;16.92;;;12.82;;
35745;SDS011;21870;42.812;74.628;2023-12-14T05:38:08;14.95;;;9.10;;
35745;SDS011;21870;42.812;74.628;2023-12-14T05:40:34;27.88;;;18.55;;
35745;SDS011;21870;42.812;74.628;2023-12-14T05:43:00;20.10;;;13.55;;
35745;SDS011;21870;42.812;74.628;2023-12-14T05:45:26;14.30;;;9.63;;
35745;SDS011;21870;42.812;74.628;2023-12-14T05:47:53;6.63;;;4.93;;
35745;SDS011;21870;42.812;74.628;2023-12-14T05:50:19;8.60;;;5.22;;
35745;SDS011;21870;42.812;74.628;2023-12-14T05:52:47;7.20;;;5.20;;
35745;SDS011;21870;42.812;74.628;2023-12-14T05:55:13;6.35;;;5.28;;
35745;SDS011;21870;42.812;74.628;2023-12-14T05:57:39;6.75;;;5.53;;
35745;SDS011;21870;42.812;74.628;2023-12-14T06:00:05;6.90;;;5.38;;
35745;SDS011;21870;42.812;74.628;2023-12-14T06:02:32;10.88;;;5.25;;
35745;SDS011;21870;42.812;74.628;2023-12-14T06:04:58;6.85;;;4.57;;
35745;SDS011;21870;42.812;74.628;2023-12-14T06:07:25;6.60;;;4.72;;
35745;SDS011;21870;42.812;74.628;2023-12-14T06:09:51;8.10;;;5.20;;
35745;SDS011;21870;42.812;74.628;2023-12-14T06:12:17;6.40;;;5.80;;
35745;SDS011;21870;42.812;74.628;2023-12-14T06:14:43;8.07;;;4.25;;
35745;SDS011;21870;42.812;74.628;2023-12-14T06:17:10;12.27;;;5.25;;
35745;SDS011;21870;42.812;74.628;2023-12-14T06:19:36;6.30;;;4.50;;
35745;SDS011;21870;42.812;74.628;2023-12-14T06:22:02;6.32;;;4.43;;
35745;SDS011;21870;42.812;74.628;2023-12-14T06:24:28;6.30;;;5.50;;
35745;SDS011;21870;42.812;74.628;2023-12-14T06:26:54;5.65;;;4.00;;
35745;SDS011;21870;42.812;74.628;2023-12-14T06:29:20;4.30;;;3.90;;
35745;SDS011;21870;42.812;74.628;2023-12-14T06:31:46;5.40;;;4.32;;
35745;SDS011;21870;42.812;74.628;2023-12-14T06:34:12;6.45;;;4.95;;
35745;SDS011;21870;42.812;74.628;2023-12-14T06:36:41;5.53;;;4.80;;
35745;SDS011;21870;42.812;74.628;2023-12-14T06:39:08;6.22;;;5.60;;
35745;SDS011;21870;42.812;74.628;2023-12-14T06:41:35;11.82;;;5.70;;
35745;SDS011;21870;42.812;74.628;2023-12-14T06:44:02;9.55;;;6.55;;
35745;SDS011;21870;42.812;74.628;2023-12-14T06:46:28;12.98;;;7.32;;
35745;SDS011;21870;42.812;74.628;2023-12-14T06:48:54;7.95;;;6.07;;
35745;SDS011;21870;42.812;74.628;2023-12-14T06:51:21;9.82;;;6.72;;
35745;SDS011;21870;42.812;74.628;2023-12-14T06:53:47;7.13;;;5.80;;
35745;SDS011;21870;42.812;74.628;2023-12-14T06:56:14;6.00;;;4.80;;
35745;SDS011;21870;42.812;74.628;2023-12-14T06:58:41;6.55;;;5.15;;
35745;SDS011;21870;42.812;74.628;2023-12-14T07:01:11;8.07;;;4.65;;
35745;SDS011;21870;42.812;74.628;2023-12-14T07:03:41;7.55;;;4.72;;
35745;SDS011;21870;42.812;74.628;2023-12-14T07:06:14;8.18;;;5.03;;
35745;SDS011;21870;42.812;74.628;2023-12-14T07:08:43;8.60;;;4.78;;
35745;SDS011;21870;42.812;74.628;2023-12-14T07:11:11;9.05;;;6.82;;
35745;SDS011;21870;42.812;74.628;2023-12-14T07:13:37;10.20;;;5.70;;
35745;SDS011;21870;42.812;74.628;2023-12-14T07:16:07;8.25;;;4.82;;
35745;SDS011;21870;42.812;74.628;2023-12-14T07:18:35;9.13;;;4.32;;
35745;SDS011;21870;42.812;74.628;2023-12-14T07:21:02;15.82;;;5.13;;
35745;SDS011;21870;42.812;74.628;2023-12-14T07:23:31;11.60;;;4.82;;
35745;SDS011;21870;42.812;74.628;2023-12-14T07:25:58;5.72;;;5.10;;
35745;SDS011;21870;42.812;74.628;2023-12-14T07:28:24;8.73;;;6.68;;
35745;SDS011;21870;42.812;74.628;2023-12-14T07:30:50;13.70;;;5.22;;
35745;SDS011;21870;42.812;74.628;2023-12-14T07:33:16;8.43;;;5.05;;
35745;SDS011;21870;42.812;74.628;2023-12-14T07:35:42;12.15;;;5.50;;
35745;SDS011;21870;42.812;74.628;2023-12-14T07:38:11;9.80;;;6.18;;
35745;SDS011;21870;42.812;74.628;2023-12-14T07:40:37;8.77;;;5.90;;
35745;SDS011;21870;42.812;74.628;2023-12-14T07:43:06;7.85;;;6.10;;
35745;SDS011;21870;42.812;74.628;2023-12-14T07:45:33;9.50;;;5.95;;
35745;SDS011;21870;42.812;74.628;2023-12-14T07:47:59;9.43;;;5.70;;
35745;SDS011;21870;42.812;74.628;2023-12-14T07:50:25;11.02;;;4.60;;
35745;SDS011;21870;42.812;74.628;2023-12-14T07:52:52;6.50;;;4.63;;
35745;SDS011;21870;42.812;74.628;2023-12-14T07:55:18;12.63;;;6.45;;
35745;SDS011;21870;42.812;74.628;2023-12-14T07:57:45;13.60;;;9.38;;
35745;SDS011;21870;42.812;74.628;2023-12-14T08:00:11;13.05;;;8.20;;
35745;SDS011;21870;42.812;74.628;2023-12-14T08:02:37;16.30;;;6.68;;
35745;SDS011;21870;42.812;74.628;2023-12-14T08:05:04;16.08;;;7.03;;
35745;SDS011;21870;42.812;74.628;2023-12-14T08:07:33;10.65;;;6.90;;
35745;SDS011;21870;42.812;74.628;2023-12-14T08:09:59;12.88;;;7.07;;
35745;SDS011;21870;42.812;74.628;2023-12-14T08:12:26;13.40;;;6.53;;
35745;SDS011;21870;42.812;74.628;2023-12-14T08:14:53;8.95;;;6.15;;
35745;SDS011;21870;42.812;74.628;2023-12-14T08:17:19;11.63;;;6.47;;
35745;SDS011;21870;42.812;74.628;2023-12-14T08:19:46;9.30;;;5.40;;
35745;SDS011;21870;42.812;74.628;2023-12-14T08:22:12;14.60;;;7.78;;
35745;SDS011;21870;42.812;74.628;2023-12-14T08:24:40;16.27;;;8.10;;
35745;SDS011;21870;42.812;74.628;2023-12-14T08:27:07;17.52;;;8.25;;
35745;SDS011;21870;42.812;74.628;2023-12-14T08:29:33;14.40;;;9.00;;
35745;SDS011;21870;42.812;74.628;2023-12-14T08:31:59;17.33;;;9.18;;
35745;SDS011;21870;42.812;74.628;2023-12-14T08:34:26;18.23;;;9.73;;
35745;SDS011;21870;42.812;74.628;2023-12-14T08:36:53;13.18;;;9.52;;
35745;SDS011;21870;42.812;74.628;2023-12-14T08:39:19;15.60;;;9.52;;
35745;SDS011;21870;42.812;74.628;2023-12-14T08:41:45;14.82;;;9.05;;
35745;SDS011;21870;42.812;74.628;2023-12-14T08:44:12;14.52;;;9.50;;
35745;SDS011;21870;42.812;74.628;2023-12-14T08:46:40;13.27;;;8.45;;
35745;SDS011;21870;42.812;74.628;2023-12-14T08:49:07;17.83;;;8.07;;
35745;SDS011;21870;42.812;74.628;2023-12-14T08:51:33;16.30;;;8.27;;
35745;SDS011;21870;42.812;74.628;2023-12-14T08:53:59;16.75;;;9.32;;
35745;SDS011;21870;42.812;74.628;2023-12-14T08:56:25;17.63;;;9.98;;
35745;SDS011;21870;42.812;74.628;2023-12-14T08:58:51;13.57;;;10.35;;
35745;SDS011;21870;42.812;74.628;2023-12-14T09:01:21;18.67;;;10.98;;
35745;SDS011;21870;42.812;74.628;2023-12-14T09:03:48;20.25;;;12.43;;
35745;SDS011;21870;42.812;74.628;2023-12-14T09:06:17;13.30;;;10.05;;
35745;SDS011;21870;42.812;74.628;2023-12-14T09:08:44;21.85;;;9.40;;
35745;SDS011;21870;42.812;74.628;2023-12-14T09:11:10;15.20;;;9.00;;
35745;SDS011;21870;42.812;74.628;2023-12-14T09:13:37;18.95;;;9.43;;
35745;SDS011;21870;42.812;74.628;2023-12-14T09:16:03;15.02;;;8.60;;
35745;SDS011;21870;42.812;74.628;2023-12-14T09:18:29;25.38;;;14.55;;
35745;SDS011;21870;42.812;74.628;2023-12-14T09:20:56;20.23;;;12.77;;
35745;SDS011;21870;42.812;74.628;2023-12-14T09:23:22;19.70;;;12.63;;
35745;SDS011;21870;42.812;74.628;2023-12-14T09:25:48;31.02;;;18.63;;
35745;SDS011;21870;42.812;74.628;2023-12-14T09:28:15;23.27;;;14.27;;
35745;SDS011;21870;42.812;74.628;2023-12-14T09:30:41;17.83;;;12.55;;
35745;SDS011;21870;42.812;74.628;2023-12-14T09:33:07;18.23;;;11.13;;
35745;SDS011;21870;42.812;74.628;2023-12-14T09:35:34;27.38;;;14.27;;
35745;SDS011;21870;42.812;74.628;2023-12-14T09:38:03;33.25;;;11.75;;
35745;SDS011;21870;42.812;74.628;2023-12-14T09:40:31;17.40;;;8.02;;
35745;SDS011;21870;42.812;74.628;2023-12-14T09:42:57;16.27;;;7.78;;
35745;SDS011;21870;42.812;74.628;2023-12-14T09:45:24;15.10;;;8.45;;
35745;SDS011;21870;42.812;74.628;2023-12-14T09:47:54;18.63;;;7.72;;
35745;SDS011;21870;42.812;74.628;2023-12-14T09:50:22;12.57;;;7.95;;
35745;SDS011;21870;42.812;74.628;2023-12-14T09:52:49;24.33;;;7.72;;
35745;SDS011;21870;42.812;74.628;2023-12-14T09:55:15;12.43;;;6.90;;
35745;SDS011;21870;42.812;74.628;2023-12-14T09:57:42;13.07;;;8.35;;
35745;SDS011;21870;42.812;74.628;2023-12-14T10:00:08;15.93;;;8.88;;
35745;SDS011;21870;42.812;74.628;2023-12-14T10:02:39;13.15;;;6.97;;
35745;SDS011;21870;42.812;74.628;2023-12-14T10:05:09;24.05;;;12.32;;
35745;SDS011;21870;42.812;74.628;2023-12-14T10:07:42;43.03;;;28.58;;
35745;SDS011;21870;42.812;74.628;2023-12-14T10:10:18;23.48;;;17.90;;
35745;SDS011;21870;42.812;74.628;2023-12-14T10:12:51;22.77;;;11.88;;
35745;SDS011;21870;42.812;74.628;2023-12-14T10:15:18;19.60;;;12.90;;
35745;SDS011;21870;42.812;74.628;2023-12-14T10:17:44;24.58;;;14.70;;
35745;SDS011;21870;42.812;74.628;2023-12-14T10:20:21;32.63;;;16.55;;
35745;SDS011;21870;42.812;74.628;2023-12-14T10:22:48;20.10;;;11.65;;
35745;SDS011;21870;42.812;74.628;2023-12-14T10:25:15;18.35;;;12.05;;
35745;SDS011;21870;42.812;74.628;2023-12-14T10:27:45;11.30;;;7.07;;
35745;SDS011;21870;42.812;74.628;2023-12-14T10:30:13;11.32;;;8.50;;
35745;SDS011;21870;42.812;74.628;2023-12-14T10:32:40;8.93;;;7.18;;
35745;SDS011;21870;42.812;74.628;2023-12-14T10:35:07;154.20;;;129.43;;
35745;SDS011;21870;42.812;74.628;2023-12-14T10:37:34;223.13;;;191.00;;
35745;SDS011;21870;42.812;74.628;2023-12-14T10:40:05;224.15;;;190.98;;
35745;SDS011;21870;42.812;74.628;2023-12-14T10:42:33;256.83;;;204.60;;
35745;SDS011;21870;42.812;74.628;2023-12-14T10:45:02;251.88;;;213.27;;
35745;SDS011;21870;42.812;74.628;2023-12-14T10:47:29;269.40;;;227.70;;
35745;SDS011;21870;42.812;74.628;2023-12-14T10:49:55;257.40;;;221.75;;
35745;SDS011;21870;42.812;74.628;2023-12-14T10:52:23;273.50;;;234.35;;
35745;SDS011;21870;42.812;74.628;2023-12-14T10:54:52;263.77;;;221.90;;
35745;SDS011;21870;42.812;74.628;2023-12-14T10:57:23;272.30;;;223.23;;
35745;SDS011;21870;42.812;74.628;2023-12-14T10:59:49;266.48;;;224.30;;
35745;SDS011;21870;42.812;74.628;2023-12-14T11:02:20;276.30;;;232.15;;
35745;SDS011;21870;42.812;74.628;2023-12-14T11:05:02;278.27;;;231.70;;
35745;SDS011;21870;42.812;74.628;2023-12-14T11:07:44;274.55;;;227.85;;
35745;SDS011;21870;42.812;74.628;2023-12-14T11:10:15;293.60;;;235.82;;
35745;SDS011;21870;42.812;74.628;2023-12-14T11:15:27;303.88;;;236.52;;
35745;SDS011;21870;42.812;74.628;2023-12-14T11:23:14;337.65;;;253.75;;
35745;SDS011;21870;42.812;74.628;2023-12-14T11:25:48;335.98;;;253.77;;
35745;SDS011;21870;42.812;74.628;2023-12-14T11:28:14;339.58;;;251.68;;
35745;SDS011;21870;42.812;74.628;2023-12-14T11:30:42;357.42;;;259.35;;
35745;SDS011;21870;42.812;74.628;2023-12-14T11:33:10;330.20;;;249.35;;
35745;SDS011;21870;42.812;74.628;2023-12-14T11:35:37;341.30;;;249.93;;
35745;SDS011;21870;42.812;74.628;2023-12-14T11:38:03;323.15;;;239.85;;
35745;SDS011;21870;42.812;74.628;2023-12-14T11:40:36;310.77;;;231.70;;
35745;SDS011;21870;42.812;74.628;2023-12-14T11:43:02;310.80;;;227.20;;
35745;SDS011;21870;42.812;74.628;2023-12-14T11:45:35;326.30;;;238.82;;
35745;SDS011;21870;42.812;74.628;2023-12-14T11:48:05;317.38;;;226.27;;
35745;SDS011;21870;42.812;74.628;2023-12-14T11:50:35;315.02;;;226.93;;
35745;SDS011;21870;42.812;74.628;2023-12-14T11:53:03;301.45;;;208.98;;
35745;SDS011;21870;42.812;74.628;2023-12-14T11:55:29;292.35;;;212.43;;
35745;SDS011;21870;42.812;74.628;2023-12-14T11:57:56;315.73;;;218.63;;
35745;SDS011;21870;42.812;74.628;2023-12-14T12:00:24;298.05;;;210.73;;
35745;SDS011;21870;42.812;74.628;2023-12-14T12:02:51;302.63;;;208.70;;
35745;SDS011;21870;42.812;74.628;2023-12-14T12:05:17;298.15;;;211.20;;
35745;SDS011;21870;42.812;74.628;2023-12-14T12:07:44;306.50;;;207.45;;
35745;SDS011;21870;42.812;74.628;2023-12-14T12:10:11;314.48;;;210.93;;
35745;SDS011;21870;42.812;74.628;2023-12-14T12:12:37;315.25;;;218.50;;
35745;SDS011;21870;42.812;74.628;2023-12-14T12:15:03;310.98;;;216.68;;
35745;SDS011;21870;42.812;74.628;2023-12-14T12:17:30;315.70;;;212.48;;
35745;SDS011;21870;42.812;74.628;2023-12-14T12:20:04;299.95;;;210.73;;
35745;SDS011;21870;42.812;74.628;2023-12-14T12:22:30;302.60;;;213.07;;
35745;SDS011;21870;42.812;74.628;2023-12-14T12:24:56;298.88;;;206.18;;
35745;SDS011;21870;42.812;74.628;2023-12-14T12:27:23;308.58;;;208.18;;
35745;SDS011;21870;42.812;74.628;2023-12-14T12:29:49;302.88;;;201.77;;
35745;SDS011;21870;42.812;74.628;2023-12-14T12:32:18;288.00;;;197.20;;
35745;SDS011;21870;42.812;74.628;2023-12-14T12:34:44;303.60;;;209.93;;
35745;SDS011;21870;42.812;74.628;2023-12-14T12:37:10;305.73;;;209.77;;
35745;SDS011;21870;42.812;74.628;2023-12-14T12:39:36;267.10;;;181.63;;
35745;SDS011;21870;42.812;74.628;2023-12-14T12:42:04;266.05;;;178.27;;
35745;SDS011;21870;42.812;74.628;2023-12-14T12:44:30;259.88;;;177.90;;
35745;SDS011;21870;42.812;74.628;2023-12-14T12:46:56;258.98;;;164.40;;
35745;SDS011;21870;42.812;74.628;2023-12-14T12:49:23;265.27;;;173.65;;
35745;SDS011;21870;42.812;74.628;2023-12-14T12:51:49;257.90;;;170.00;;
35745;SDS011;21870;42.812;74.628;2023-12-14T12:54:15;248.40;;;160.43;;
35745;SDS011;21870;42.812;74.628;2023-12-14T12:56:41;238.63;;;150.98;;
35745;SDS011;21870;42.812;74.628;2023-12-14T12:59:08;229.63;;;140.50;;
35745;SDS011;21870;42.812;74.628;2023-12-14T13:01:34;238.65;;;150.70;;
35745;SDS011;21870;42.812;74.628;2023-12-14T13:04:00;177.80;;;110.70;;
35745;SDS011;21870;42.812;74.628;2023-12-14T13:06:29;217.15;;;137.40;;
35745;SDS011;21870;42.812;74.628;2023-12-14T13:08:55;248.48;;;152.75;;
35745;SDS011;21870;42.812;74.628;2023-12-14T13:11:21;249.57;;;161.32;;
35745;SDS011;21870;42.812;74.628;2023-12-14T13:13:47;265.67;;;173.88;;
35745;SDS011;21870;42.812;74.628;2023-12-14T13:16:13;250.63;;;158.50;;
35745;SDS011;21870;42.812;74.628;2023-12-14T13:18:42;279.00;;;173.90;;
35745;SDS011;21870;42.812;74.628;2023-12-14T13:21:08;270.00;;;173.48;;
35745;SDS011;21870;42.812;74.628;2023-12-14T13:23:34;283.90;;;175.70;;
35745;SDS011;21870;42.812;74.628;2023-12-14T13:26:00;271.17;;;171.05;;
35745;SDS011;21870;42.812;74.628;2023-12-14T13:28:26;250.13;;;149.85;;
35745;SDS011;21870;42.812;74.628;2023-12-14T13:30:52;251.52;;;156.32;;
35745;SDS011;21870;42.812;74.628;2023-12-14T13:33:19;246.15;;;147.40;;
35745;SDS011;21870;42.812;74.628;2023-12-14T13:35:46;216.23;;;130.25;;
35745;SDS011;21870;42.812;74.628;2023-12-14T13:38:12;268.45;;;152.07;;
35745;SDS011;21870;42.812;74.628;2023-12-14T13:40:38;240.68;;;143.93;;
35745;SDS011;21870;42.812;74.628;2023-12-14T13:43:05;232.43;;;141.20;;
35745;SDS011;21870;42.812;74.628;2023-12-14T13:45:35;224.68;;;133.82;;
35745;SDS011;21870;42.812;74.628;2023-12-14T13:48:02;213.23;;;127.68;;
35745;SDS011;21870;42.812;74.628;2023-12-14T13:50:29;205.10;;;127.25;;
35745;SDS011;21870;42.812;74.628;2023-12-14T13:52:55;209.48;;;127.20;;
35745;SDS011;21870;42.812;74.628;2023-12-14T13:55:21;206.88;;;128.10;;
35745;SDS011;21870;42.812;74.628;2023-12-14T13:57:47;208.43;;;125.85;;
35745;SDS011;21870;42.812;74.628;2023-12-14T14:00:14;200.73;;;120.63;;
35745;SDS011;21870;42.812;74.628;2023-12-14T14:02:41;214.25;;;126.22;;
35745;SDS011;21870;42.812;74.628;2023-12-14T14:05:07;204.80;;;126.97;;
35745;SDS011;21870;42.812;74.628;2023-12-14T14:07:33;210.88;;;126.57;;
35745;SDS011;21870;42.812;74.628;2023-12-14T14:09:59;223.95;;;129.05;;
35745;SDS011;21870;42.812;74.628;2023-12-14T14:12:25;194.25;;;120.13;;
35745;SDS011;21870;42.812;74.628;2023-12-14T14:14:51;208.07;;;125.82;;
35745;SDS011;21870;42.812;74.628;2023-12-14T14:17:17;202.27;;;127.65;;
35745;SDS011;21870;42.812;74.628;2023-12-14T14:19:43;190.35;;;116.85;;